sensor_id;sensor_type;location;lat;lon;timestamp;P1;durP1;ratioP1;P2;durP2;ratioP2
36715;SDS011;22699;51.034;3.730;2022-11-15T00:01:53;26.63;;;20.25;;
36715;SDS011;22699;51.034;3.730;2022-11-15T00:04:18;24.83;;;19.65;;
36715;SDS011;22699;51.034;3.730;2022-11-15T00:06:44;27.50;;;19.25;;
36715;SDS011;22699;51.034;3.730;2022-11-15T00:09:09;27.38;;;20.00;;
36715;SDS011;22699;51.034;3.730;2022-11-15T00:11:35;24.27;;;18.95;;
36715;SDS011;22699;51.034;3.730;2022-11-15T00:14:01;28.08;;;18.85;;
36715;SDS011;22699;51.034;3.730;2022-11-15T00:16:29;25.15;;;17.55;;
36715;SDS011;22699;51.034;3.730;2022-11-15T00:18:54;23.08;;;17.10;;
36715;SDS011;22699;51.034;3.730;2022-11-15T00:21:22;24.30;;;17.98;;
36715;SDS011;22699;51.034;3.730;2022-11-15T00:23:47;24.23;;;18.05;;
36715;SDS011;22699;51.034;3.730;2022-11-15T00:26:13;25.20;;;17.83;;
36715;SDS011;22699;51.034;3.730;2022-11-15T00:28:40;23.67;;;17.52;;
36715;SDS011;22699;51.034;3.730;2022-11-15T00:31:09;25.63;;;17.38;;
36715;SDS011;22699;51.034;3.730;2022-11-15T00:33:37;25.38;;;18.02;;
36715;SDS011;22699;51.034;3.730;2022-11-15T00:36:03;20.23;;;16.35;;
36715;SDS011;22699;51.034;3.730;2022-11-15T00:38:34;21.92;;;17.20;;
36715;SDS011;22699;51.034;3.730;2022-11-15T00:41:02;25.73;;;17.90;;
36715;SDS011;22699;51.034;3.730;2022-11-15T00:43:28;20.88;;;15.68;;
36715;SDS011;22699;51.034;3.730;2022-11-15T00:45:54;24.52;;;17.85;;
36715;SDS011;22699;51.034;3.730;2022-11-15T00:48:20;26.08;;;17.88;;
36715;SDS011;22699;51.034;3.730;2022-11-15T00:50:46;22.52;;;16.23;;
36715;SDS011;22699;51.034;3.730;2022-11-15T00:53:12;22.63;;;17.08;;
36715;SDS011;22699;51.034;3.730;2022-11-15T00:55:37;26.45;;;17.08;;
36715;SDS011;22699;51.034;3.730;2022-11-15T00:58:03;25.10;;;18.08;;
36715;SDS011;22699;51.034;3.730;2022-11-15T01:00:28;27.35;;;18.60;;
36715;SDS011;22699;51.034;3.730;2022-11-15T01:02:54;21.38;;;17.10;;
36715;SDS011;22699;51.034;3.730;2022-11-15T01:05:19;22.67;;;17.67;;
36715;SDS011;22699;51.034;3.730;2022-11-15T01:07:45;25.50;;;17.20;;
36715;SDS011;22699;51.034;3.730;2022-11-15T01:10:11;22.73;;;17.05;;
36715;SDS011;22699;51.034;3.730;2022-11-15T01:12:37;24.65;;;17.83;;
36715;SDS011;22699;51.034;3.730;2022-11-15T01:15:03;24.15;;;17.20;;
36715;SDS011;22699;51.034;3.730;2022-11-15T01:17:30;25.58;;;17.55;;
36715;SDS011;22699;51.034;3.730;2022-11-15T01:19:56;22.25;;;17.65;;
36715;SDS011;22699;51.034;3.730;2022-11-15T01:22:22;21.63;;;16.17;;
36715;SDS011;22699;51.034;3.730;2022-11-15T01:24:49;22.48;;;17.17;;
36715;SDS011;22699;51.034;3.730;2022-11-15T01:27:15;25.63;;;17.13;;
36715;SDS011;22699;51.034;3.730;2022-11-15T01:29:41;21.60;;;16.70;;
36715;SDS011;22699;51.034;3.730;2022-11-15T01:32:07;24.13;;;16.00;;
36715;SDS011;22699;51.034;3.730;2022-11-15T01:34:33;25.13;;;16.23;;
36715;SDS011;22699;51.034;3.730;2022-11-15T01:36:58;27.55;;;17.23;;
36715;SDS011;22699;51.034;3.730;2022-11-15T01:39:24;21.85;;;15.85;;
36715;SDS011;22699;51.034;3.730;2022-11-15T01:46:57;19.90;;;14.60;;
36715;SDS011;22699;51.034;3.730;2022-11-15T01:49:24;22.70;;;14.52;;
36715;SDS011;22699;51.034;3.730;2022-11-15T01:51:52;23.58;;;14.80;;
36715;SDS011;22699;51.034;3.730;2022-11-15T01:54:19;17.58;;;13.88;;
36715;SDS011;22699;51.034;3.730;2022-11-15T01:56:51;20.40;;;14.13;;
36715;SDS011;22699;51.034;3.730;2022-11-15T01:59:20;17.77;;;13.60;;
36715;SDS011;22699;51.034;3.730;2022-11-15T02:01:46;19.60;;;13.35;;
36715;SDS011;22699;51.034;3.730;2022-11-15T02:04:20;17.67;;;12.80;;
36715;SDS011;22699;51.034;3.730;2022-11-15T02:06:51;18.33;;;13.13;;
36715;SDS011;22699;51.034;3.730;2022-11-15T02:09:17;20.40;;;13.48;;
36715;SDS011;22699;51.034;3.730;2022-11-15T02:11:44;17.98;;;12.13;;
36715;SDS011;22699;51.034;3.730;2022-11-15T02:14:11;19.23;;;12.88;;
36715;SDS011;22699;51.034;3.730;2022-11-15T02:16:44;20.58;;;11.90;;
36715;SDS011;22699;51.034;3.730;2022-11-15T02:28:16;20.10;;;11.05;;
36715;SDS011;22699;51.034;3.730;2022-11-15T02:30:24;19.05;;;11.07;;
36715;SDS011;22699;51.034;3.730;2022-11-15T02:33:03;19.25;;;10.32;;
36715;SDS011;22699;51.034;3.730;2022-11-15T02:35:37;16.52;;;9.30;;
36715;SDS011;22699;51.034;3.730;2022-11-15T02:40:38;18.23;;;9.52;;
36715;SDS011;22699;51.034;3.730;2022-11-15T02:43:24;15.32;;;9.65;;
36715;SDS011;22699;51.034;3.730;2022-11-15T02:49:20;13.63;;;8.30;;
36715;SDS011;22699;51.034;3.730;2022-11-15T02:51:47;14.02;;;8.90;;
36715;SDS011;22699;51.034;3.730;2022-11-15T02:54:23;14.95;;;7.55;;
36715;SDS011;22699;51.034;3.730;2022-11-15T02:56:52;13.50;;;7.95;;
36715;SDS011;22699;51.034;3.730;2022-11-15T03:05:09;11.52;;;7.53;;
36715;SDS011;22699;51.034;3.730;2022-11-15T03:07:44;14.40;;;7.15;;
36715;SDS011;22699;51.034;3.730;2022-11-15T03:18:33;14.45;;;6.97;;
36715;SDS011;22699;51.034;3.730;2022-11-15T03:21:07;16.65;;;6.70;;
36715;SDS011;22699;51.034;3.730;2022-11-15T03:23:37;11.52;;;6.32;;
36715;SDS011;22699;51.034;3.730;2022-11-15T03:26:07;13.35;;;7.88;;
36715;SDS011;22699;51.034;3.730;2022-11-15T03:28:39;10.65;;;6.72;;
36715;SDS011;22699;51.034;3.730;2022-11-15T03:31:14;13.27;;;6.55;;
36715;SDS011;22699;51.034;3.730;2022-11-15T03:34:00;13.27;;;6.70;;
36715;SDS011;22699;51.034;3.730;2022-11-15T03:36:29;13.75;;;6.97;;
36715;SDS011;22699;51.034;3.730;2022-11-15T03:38:58;13.52;;;5.97;;
36715;SDS011;22699;51.034;3.730;2022-11-15T03:41:29;12.20;;;6.50;;
36715;SDS011;22699;51.034;3.730;2022-11-15T03:44:12;16.02;;;6.05;;
36715;SDS011;22699;51.034;3.730;2022-11-15T03:46:42;11.80;;;6.57;;
36715;SDS011;22699;51.034;3.730;2022-11-15T03:49:17;10.95;;;5.57;;
36715;SDS011;22699;51.034;3.730;2022-11-15T03:51:49;12.55;;;6.57;;
36715;SDS011;22699;51.034;3.730;2022-11-15T03:54:15;16.10;;;6.05;;
36715;SDS011;22699;51.034;3.730;2022-11-15T03:56:41;14.80;;;6.57;;
36715;SDS011;22699;51.034;3.730;2022-11-15T03:59:06;25.95;;;6.40;;
36715;SDS011;22699;51.034;3.730;2022-11-15T04:01:32;17.38;;;6.30;;
36715;SDS011;22699;51.034;3.730;2022-11-15T04:03:57;10.45;;;6.28;;
36715;SDS011;22699;51.034;3.730;2022-11-15T04:06:23;13.52;;;6.75;;
36715;SDS011;22699;51.034;3.730;2022-11-15T04:08:49;15.95;;;6.85;;
36715;SDS011;22699;51.034;3.730;2022-11-15T04:11:14;17.30;;;6.47;;
36715;SDS011;22699;51.034;3.730;2022-11-15T04:13:40;9.35;;;5.57;;
36715;SDS011;22699;51.034;3.730;2022-11-15T04:16:06;13.27;;;6.30;;
36715;SDS011;22699;51.034;3.730;2022-11-15T04:18:32;10.90;;;6.32;;
36715;SDS011;22699;51.034;3.730;2022-11-15T04:20:58;13.10;;;6.25;;
36715;SDS011;22699;51.034;3.730;2022-11-15T04:23:43;12.93;;;5.70;;
36715;SDS011;22699;51.034;3.730;2022-11-15T04:26:27;10.23;;;5.55;;
36715;SDS011;22699;51.034;3.730;2022-11-15T04:28:52;9.07;;;5.43;;
36715;SDS011;22699;51.034;3.730;2022-11-15T04:31:47;9.10;;;5.45;;
36715;SDS011;22699;51.034;3.730;2022-11-15T04:34:13;15.95;;;6.30;;
36715;SDS011;22699;51.034;3.730;2022-11-15T04:36:38;15.07;;;5.82;;
36715;SDS011;22699;51.034;3.730;2022-11-15T04:39:22;8.38;;;6.60;;
36715;SDS011;22699;51.034;3.730;2022-11-15T04:41:49;16.13;;;6.32;;
36715;SDS011;22699;51.034;3.730;2022-11-15T04:44:15;7.78;;;4.82;;
36715;SDS011;22699;51.034;3.730;2022-11-15T04:46:41;13.82;;;5.72;;
36715;SDS011;22699;51.034;3.730;2022-11-15T04:49:07;13.80;;;5.35;;
36715;SDS011;22699;51.034;3.730;2022-11-15T04:51:32;9.90;;;4.57;;
36715;SDS011;22699;51.034;3.730;2022-11-15T04:53:58;7.55;;;4.10;;
36715;SDS011;22699;51.034;3.730;2022-11-15T04:56:23;12.25;;;4.20;;
36715;SDS011;22699;51.034;3.730;2022-11-15T04:58:49;10.82;;;4.70;;
36715;SDS011;22699;51.034;3.730;2022-11-15T05:01:16;12.75;;;4.97;;
36715;SDS011;22699;51.034;3.730;2022-11-15T05:03:42;9.93;;;4.38;;
36715;SDS011;22699;51.034;3.730;2022-11-15T05:06:27;9.00;;;4.13;;
36715;SDS011;22699;51.034;3.730;2022-11-15T05:08:53;10.10;;;5.25;;
36715;SDS011;22699;51.034;3.730;2022-11-15T05:11:19;10.65;;;4.43;;
36715;SDS011;22699;51.034;3.730;2022-11-15T05:13:45;10.95;;;4.88;;
36715;SDS011;22699;51.034;3.730;2022-11-15T05:16:11;9.13;;;4.47;;
36715;SDS011;22699;51.034;3.730;2022-11-15T05:18:37;12.07;;;5.38;;
36715;SDS011;22699;51.034;3.730;2022-11-15T05:21:06;9.73;;;4.70;;
36715;SDS011;22699;51.034;3.730;2022-11-15T05:23:34;13.57;;;5.82;;
36715;SDS011;22699;51.034;3.730;2022-11-15T05:26:03;11.90;;;5.00;;
36715;SDS011;22699;51.034;3.730;2022-11-15T05:28:31;16.50;;;5.28;;
36715;SDS011;22699;51.034;3.730;2022-11-15T05:31:01;11.80;;;5.07;;
36715;SDS011;22699;51.034;3.730;2022-11-15T05:33:27;12.43;;;5.03;;
36715;SDS011;22699;51.034;3.730;2022-11-15T05:36:00;13.40;;;5.63;;
36715;SDS011;22699;51.034;3.730;2022-11-15T05:38:48;9.45;;;5.18;;
36715;SDS011;22699;51.034;3.730;2022-11-15T05:41:18;8.05;;;5.38;;
36715;SDS011;22699;51.034;3.730;2022-11-15T05:43:46;10.45;;;4.47;;
36715;SDS011;22699;51.034;3.730;2022-11-15T05:46:15;9.57;;;5.05;;
36715;SDS011;22699;51.034;3.730;2022-11-15T05:48:43;9.57;;;4.60;;
36715;SDS011;22699;51.034;3.730;2022-11-15T05:51:12;7.70;;;4.72;;
36715;SDS011;22699;51.034;3.730;2022-11-15T05:53:40;5.18;;;3.97;;
36715;SDS011;22699;51.034;3.730;2022-11-15T05:56:06;10.82;;;4.70;;
36715;SDS011;22699;51.034;3.730;2022-11-15T05:58:33;12.68;;;4.43;;
36715;SDS011;22699;51.034;3.730;2022-11-15T06:00:59;11.07;;;4.80;;
36715;SDS011;22699;51.034;3.730;2022-11-15T06:03:25;10.07;;;4.72;;
36715;SDS011;22699;51.034;3.730;2022-11-15T06:05:51;13.55;;;6.07;;
36715;SDS011;22699;51.034;3.730;2022-11-15T06:08:17;10.85;;;5.82;;
36715;SDS011;22699;51.034;3.730;2022-11-15T06:10:42;12.60;;;6.40;;
36715;SDS011;22699;51.034;3.730;2022-11-15T06:13:08;10.25;;;5.95;;
36715;SDS011;22699;51.034;3.730;2022-11-15T06:15:33;9.02;;;5.40;;
36715;SDS011;22699;51.034;3.730;2022-11-15T06:17:59;10.68;;;6.00;;
36715;SDS011;22699;51.034;3.730;2022-11-15T06:20:26;14.25;;;5.65;;
36715;SDS011;22699;51.034;3.730;2022-11-15T06:22:57;11.85;;;6.60;;
36715;SDS011;22699;51.034;3.730;2022-11-15T06:25:23;13.18;;;6.95;;
36715;SDS011;22699;51.034;3.730;2022-11-15T06:27:53;11.63;;;6.68;;
36715;SDS011;22699;51.034;3.730;2022-11-15T06:30:20;13.75;;;6.63;;
36715;SDS011;22699;51.034;3.730;2022-11-15T06:32:46;11.15;;;6.85;;
36715;SDS011;22699;51.034;3.730;2022-11-15T06:35:12;11.68;;;7.88;;
36715;SDS011;22699;51.034;3.730;2022-11-15T06:37:39;12.75;;;7.32;;
36715;SDS011;22699;51.034;3.730;2022-11-15T06:40:06;11.57;;;6.90;;
36715;SDS011;22699;51.034;3.730;2022-11-15T06:42:35;11.50;;;6.63;;
36715;SDS011;22699;51.034;3.730;2022-11-15T06:45:00;11.65;;;7.00;;
36715;SDS011;22699;51.034;3.730;2022-11-15T06:47:26;11.77;;;7.70;;
36715;SDS011;22699;51.034;3.730;2022-11-15T06:49:53;10.40;;;6.88;;
36715;SDS011;22699;51.034;3.730;2022-11-15T06:52:18;12.10;;;7.85;;
36715;SDS011;22699;51.034;3.730;2022-11-15T06:54:44;15.15;;;7.20;;
36715;SDS011;22699;51.034;3.730;2022-11-15T06:57:10;11.00;;;6.95;;
36715;SDS011;22699;51.034;3.730;2022-11-15T06:59:36;12.18;;;7.10;;
36715;SDS011;22699;51.034;3.730;2022-11-15T07:02:02;9.65;;;6.35;;
36715;SDS011;22699;51.034;3.730;2022-11-15T07:04:28;11.88;;;6.38;;
36715;SDS011;22699;51.034;3.730;2022-11-15T07:06:54;10.50;;;6.55;;
36715;SDS011;22699;51.034;3.730;2022-11-15T07:09:19;9.70;;;6.07;;
36715;SDS011;22699;51.034;3.730;2022-11-15T07:11:45;8.27;;;5.65;;
36715;SDS011;22699;51.034;3.730;2022-11-15T07:14:11;12.10;;;6.82;;
36715;SDS011;22699;51.034;3.730;2022-11-15T07:16:36;6.95;;;5.85;;
36715;SDS011;22699;51.034;3.730;2022-11-15T07:19:03;7.82;;;5.57;;
36715;SDS011;22699;51.034;3.730;2022-11-15T07:21:28;13.18;;;5.88;;
36715;SDS011;22699;51.034;3.730;2022-11-15T07:23:54;8.63;;;5.28;;
36715;SDS011;22699;51.034;3.730;2022-11-15T07:26:22;7.57;;;5.78;;
36715;SDS011;22699;51.034;3.730;2022-11-15T07:28:48;7.88;;;5.40;;
36715;SDS011;22699;51.034;3.730;2022-11-15T07:31:13;8.10;;;5.60;;
36715;SDS011;22699;51.034;3.730;2022-11-15T07:33:39;10.02;;;5.20;;
36715;SDS011;22699;51.034;3.730;2022-11-15T07:36:05;10.73;;;4.72;;
36715;SDS011;22699;51.034;3.730;2022-11-15T07:38:31;5.43;;;4.70;;
36715;SDS011;22699;51.034;3.730;2022-11-15T07:40:58;17.77;;;5.30;;
36715;SDS011;22699;51.034;3.730;2022-11-15T07:43:26;7.88;;;4.35;;
36715;SDS011;22699;51.034;3.730;2022-11-15T07:45:53;11.68;;;5.00;;
36715;SDS011;22699;51.034;3.730;2022-11-15T07:48:19;7.25;;;4.22;;
36715;SDS011;22699;51.034;3.730;2022-11-15T07:50:44;8.23;;;4.10;;
36715;SDS011;22699;51.034;3.730;2022-11-15T07:53:10;9.90;;;3.83;;
36715;SDS011;22699;51.034;3.730;2022-11-15T07:55:36;5.20;;;4.10;;
36715;SDS011;22699;51.034;3.730;2022-11-15T07:58:06;7.50;;;3.58;;
36715;SDS011;22699;51.034;3.730;2022-11-15T08:00:35;5.50;;;4.32;;
36715;SDS011;22699;51.034;3.730;2022-11-15T08:03:06;10.65;;;4.63;;
36715;SDS011;22699;51.034;3.730;2022-11-15T08:05:36;7.35;;;3.50;;
36715;SDS011;22699;51.034;3.730;2022-11-15T08:08:03;13.73;;;3.88;;
36715;SDS011;22699;51.034;3.730;2022-11-15T08:10:33;9.65;;;3.92;;
36715;SDS011;22699;51.034;3.730;2022-11-15T08:13:05;12.13;;;3.60;;
36715;SDS011;22699;51.034;3.730;2022-11-15T08:15:34;7.63;;;3.00;;
36715;SDS011;22699;51.034;3.730;2022-11-15T08:18:02;7.05;;;3.05;;
36715;SDS011;22699;51.034;3.730;2022-11-15T08:20:30;6.22;;;2.30;;
36715;SDS011;22699;51.034;3.730;2022-11-15T08:22:56;7.85;;;2.20;;
36715;SDS011;22699;51.034;3.730;2022-11-15T08:25:23;9.30;;;2.65;;
36715;SDS011;22699;51.034;3.730;2022-11-15T08:27:54;5.40;;;2.72;;
36715;SDS011;22699;51.034;3.730;2022-11-15T08:30:21;5.97;;;2.05;;
36715;SDS011;22699;51.034;3.730;2022-11-15T08:32:47;7.22;;;2.80;;
36715;SDS011;22699;51.034;3.730;2022-11-15T08:35:14;4.47;;;2.38;;
36715;SDS011;22699;51.034;3.730;2022-11-15T08:37:39;5.28;;;1.98;;
36715;SDS011;22699;51.034;3.730;2022-11-15T08:40:06;6.20;;;2.42;;
36715;SDS011;22699;51.034;3.730;2022-11-15T08:42:32;5.15;;;1.88;;
36715;SDS011;22699;51.034;3.730;2022-11-15T08:44:58;6.80;;;2.13;;
36715;SDS011;22699;51.034;3.730;2022-11-15T08:47:25;5.82;;;2.13;;
36715;SDS011;22699;51.034;3.730;2022-11-15T08:49:51;7.22;;;2.33;;
36715;SDS011;22699;51.034;3.730;2022-11-15T08:52:20;9.90;;;2.10;;
36715;SDS011;22699;51.034;3.730;2022-11-15T08:54:47;7.78;;;1.80;;
36715;SDS011;22699;51.034;3.730;2022-11-15T08:57:13;3.92;;;1.60;;
36715;SDS011;22699;51.034;3.730;2022-11-15T08:59:38;4.25;;;1.92;;
36715;SDS011;22699;51.034;3.730;2022-11-15T09:02:04;3.88;;;2.10;;
36715;SDS011;22699;51.034;3.730;2022-11-15T09:04:31;8.40;;;2.75;;
36715;SDS011;22699;51.034;3.730;2022-11-15T09:06:58;4.95;;;1.50;;
36715;SDS011;22699;51.034;3.730;2022-11-15T09:09:23;9.35;;;2.78;;
36715;SDS011;22699;51.034;3.730;2022-11-15T09:11:49;4.57;;;1.20;;
36715;SDS011;22699;51.034;3.730;2022-11-15T09:14:15;7.22;;;1.77;;
36715;SDS011;22699;51.034;3.730;2022-11-15T09:16:41;9.98;;;2.28;;
36715;SDS011;22699;51.034;3.730;2022-11-15T09:19:07;5.03;;;1.42;;
36715;SDS011;22699;51.034;3.730;2022-11-15T09:21:32;5.38;;;1.83;;
36715;SDS011;22699;51.034;3.730;2022-11-15T09:23:59;7.28;;;2.10;;
36715;SDS011;22699;51.034;3.730;2022-11-15T09:26:25;10.95;;;1.80;;
36715;SDS011;22699;51.034;3.730;2022-11-15T09:28:50;5.18;;;1.73;;
36715;SDS011;22699;51.034;3.730;2022-11-15T09:31:16;10.90;;;2.00;;
36715;SDS011;22699;51.034;3.730;2022-11-15T09:33:45;7.60;;;1.98;;
36715;SDS011;22699;51.034;3.730;2022-11-15T09:36:10;5.57;;;2.15;;
36715;SDS011;22699;51.034;3.730;2022-11-15T09:38:36;6.82;;;1.50;;
36715;SDS011;22699;51.034;3.730;2022-11-15T09:50:15;9.77;;;2.15;;
36715;SDS011;22699;51.034;3.730;2022-11-15T09:55:58;7.97;;;1.98;;
36715;SDS011;22699;51.034;3.730;2022-11-15T09:58:33;11.80;;;2.10;;
36715;SDS011;22699;51.034;3.730;2022-11-15T10:01:12;5.72;;;1.77;;
36715;SDS011;22699;51.034;3.730;2022-11-15T10:03:48;7.68;;;1.55;;
36715;SDS011;22699;51.034;3.730;2022-11-15T10:06:21;6.72;;;1.60;;
36715;SDS011;22699;51.034;3.730;2022-11-15T10:11:45;7.20;;;1.40;;
36715;SDS011;22699;51.034;3.730;2022-11-15T10:14:13;9.65;;;1.33;;
36715;SDS011;22699;51.034;3.730;2022-11-15T10:16:49;3.45;;;1.15;;
36715;SDS011;22699;51.034;3.730;2022-11-15T10:25:09;7.32;;;2.00;;
36715;SDS011;22699;51.034;3.730;2022-11-15T10:27:37;8.82;;;2.38;;
36715;SDS011;22699;51.034;3.730;2022-11-15T10:30:14;6.18;;;1.90;;
36715;SDS011;22699;51.034;3.730;2022-11-15T10:32:49;5.25;;;1.30;;
36715;SDS011;22699;51.034;3.730;2022-11-15T10:38:10;5.68;;;1.67;;
36715;SDS011;22699;51.034;3.730;2022-11-15T10:40:45;5.43;;;1.05;;
36715;SDS011;22699;51.034;3.730;2022-11-15T10:43:20;5.95;;;1.67;;
36715;SDS011;22699;51.034;3.730;2022-11-15T10:45:52;7.28;;;1.45;;
36715;SDS011;22699;51.034;3.730;2022-11-15T10:51:25;8.68;;;1.83;;
36715;SDS011;22699;51.034;3.730;2022-11-15T10:54:11;7.82;;;1.63;;
36715;SDS011;22699;51.034;3.730;2022-11-15T10:56:52;6.28;;;1.55;;
36715;SDS011;22699;51.034;3.730;2022-11-15T10:59:24;6.85;;;1.30;;
36715;SDS011;22699;51.034;3.730;2022-11-15T11:01:59;7.97;;;1.33;;
36715;SDS011;22699;51.034;3.730;2022-11-15T11:04:35;9.77;;;1.73;;
36715;SDS011;22699;51.034;3.730;2022-11-15T11:07:26;8.13;;;1.30;;
36715;SDS011;22699;51.034;3.730;2022-11-15T11:09:57;5.93;;;1.25;;
36715;SDS011;22699;51.034;3.730;2022-11-15T11:12:27;7.80;;;1.48;;
36715;SDS011;22699;51.034;3.730;2022-11-15T11:14:57;6.07;;;1.35;;
36715;SDS011;22699;51.034;3.730;2022-11-15T11:23:03;7.25;;;1.38;;
36715;SDS011;22699;51.034;3.730;2022-11-15T11:39:24;3.60;;;0.85;;
36715;SDS011;22699;51.034;3.730;2022-11-15T11:42:17;7.27;;;1.40;;
36715;SDS011;22699;51.034;3.730;2022-11-15T11:44:58;3.60;;;1.23;;
36715;SDS011;22699;51.034;3.730;2022-11-15T11:47:52;4.47;;;1.33;;
36715;SDS011;22699;51.034;3.730;2022-11-15T11:50:38;4.28;;;0.93;;
36715;SDS011;22699;51.034;3.730;2022-11-15T11:55:43;4.90;;;1.00;;
36715;SDS011;22699;51.034;3.730;2022-11-15T11:58:16;7.05;;;1.02;;
36715;SDS011;22699;51.034;3.730;2022-11-15T12:00:49;6.82;;;1.33;;
36715;SDS011;22699;51.034;3.730;2022-11-15T12:03:25;6.53;;;1.20;;
36715;SDS011;22699;51.034;3.730;2022-11-15T12:08:47;4.47;;;0.95;;
36715;SDS011;22699;51.034;3.730;2022-11-15T12:11:23;6.97;;;1.17;;
36715;SDS011;22699;51.034;3.730;2022-11-15T12:13:56;6.38;;;1.30;;
36715;SDS011;22699;51.034;3.730;2022-11-15T12:16:27;9.27;;;2.03;;
36715;SDS011;22699;51.034;3.730;2022-11-15T12:18:55;6.05;;;0.90;;
36715;SDS011;22699;51.034;3.730;2022-11-15T12:24:20;4.30;;;1.02;;
36715;SDS011;22699;51.034;3.730;2022-11-15T12:27:05;3.78;;;1.05;;
36715;SDS011;22699;51.034;3.730;2022-11-15T12:29:50;5.13;;;1.17;;
36715;SDS011;22699;51.034;3.730;2022-11-15T12:35:01;6.63;;;1.40;;
36715;SDS011;22699;51.034;3.730;2022-11-15T12:45:38;6.03;;;1.50;;
36715;SDS011;22699;51.034;3.730;2022-11-15T12:58:47;5.82;;;0.90;;
36715;SDS011;22699;51.034;3.730;2022-11-15T13:06:57;5.28;;;1.10;;
36715;SDS011;22699;51.034;3.730;2022-11-15T13:17:02;5.97;;;1.00;;
36715;SDS011;22699;51.034;3.730;2022-11-15T13:19:40;3.58;;;1.38;;
36715;SDS011;22699;51.034;3.730;2022-11-15T13:22:10;6.78;;;1.33;;
36715;SDS011;22699;51.034;3.730;2022-11-15T13:24:54;3.20;;;1.20;;
36715;SDS011;22699;51.034;3.730;2022-11-15T13:27:20;5.90;;;1.30;;
36715;SDS011;22699;51.034;3.730;2022-11-15T13:29:46;4.10;;;0.95;;
36715;SDS011;22699;51.034;3.730;2022-11-15T13:32:12;6.15;;;1.70;;
36715;SDS011;22699;51.034;3.730;2022-11-15T13:34:42;4.00;;;1.08;;
36715;SDS011;22699;51.034;3.730;2022-11-15T13:37:32;3.80;;;1.10;;
36715;SDS011;22699;51.034;3.730;2022-11-15T13:40:09;3.35;;;1.50;;
36715;SDS011;22699;51.034;3.730;2022-11-15T13:42:48;3.95;;;1.30;;
36715;SDS011;22699;51.034;3.730;2022-11-15T13:45:16;8.30;;;1.48;;
36715;SDS011;22699;51.034;3.730;2022-11-15T13:47:43;3.50;;;1.30;;
36715;SDS011;22699;51.034;3.730;2022-11-15T13:50:12;3.40;;;1.30;;
36715;SDS011;22699;51.034;3.730;2022-11-15T13:52:39;6.97;;;2.17;;
36715;SDS011;22699;51.034;3.730;2022-11-15T13:57:53;9.10;;;2.05;;
36715;SDS011;22699;51.034;3.730;2022-11-15T14:00:44;5.82;;;1.08;;
36715;SDS011;22699;51.034;3.730;2022-11-15T14:06:19;8.43;;;1.50;;
36715;SDS011;22699;51.034;3.730;2022-11-15T14:11:33;4.15;;;1.88;;
36715;SDS011;22699;51.034;3.730;2022-11-15T14:16:45;2.10;;;1.10;;
36715;SDS011;22699;51.034;3.730;2022-11-15T14:19:13;3.10;;;1.77;;
36715;SDS011;22699;51.034;3.730;2022-11-15T14:24:41;3.00;;;1.20;;
36715;SDS011;22699;51.034;3.730;2022-11-15T14:29:48;4.43;;;1.98;;
36715;SDS011;22699;51.034;3.730;2022-11-15T14:32:16;4.10;;;1.00;;
36715;SDS011;22699;51.034;3.730;2022-11-15T14:34:54;2.50;;;1.40;;
36715;SDS011;22699;51.034;3.730;2022-11-15T14:37:22;7.18;;;2.33;;
36715;SDS011;22699;51.034;3.730;2022-11-15T14:39:49;3.00;;;1.95;;
36715;SDS011;22699;51.034;3.730;2022-11-15T14:42:16;3.17;;;1.55;;
36715;SDS011;22699;51.034;3.730;2022-11-15T14:44:42;8.00;;;4.93;;
36715;SDS011;22699;51.034;3.730;2022-11-15T14:47:08;4.38;;;2.00;;
36715;SDS011;22699;51.034;3.730;2022-11-15T14:49:33;2.80;;;1.35;;
36715;SDS011;22699;51.034;3.730;2022-11-15T14:51:59;5.30;;;3.90;;
36715;SDS011;22699;51.034;3.730;2022-11-15T14:54:24;3.50;;;2.20;;
36715;SDS011;22699;51.034;3.730;2022-11-15T14:56:50;3.95;;;1.80;;
36715;SDS011;22699;51.034;3.730;2022-11-15T14:59:15;5.88;;;2.95;;
36715;SDS011;22699;51.034;3.730;2022-11-15T15:01:41;3.85;;;2.00;;
36715;SDS011;22699;51.034;3.730;2022-11-15T15:04:08;5.03;;;2.67;;
36715;SDS011;22699;51.034;3.730;2022-11-15T15:06:35;4.25;;;2.10;;
36715;SDS011;22699;51.034;3.730;2022-11-15T15:09:01;6.60;;;2.15;;
36715;SDS011;22699;51.034;3.730;2022-11-15T15:11:28;3.85;;;2.30;;
36715;SDS011;22699;51.034;3.730;2022-11-15T15:13:56;4.78;;;2.10;;
36715;SDS011;22699;51.034;3.730;2022-11-15T15:16:25;5.25;;;2.28;;
36715;SDS011;22699;51.034;3.730;2022-11-15T15:18:50;5.05;;;2.45;;
36715;SDS011;22699;51.034;3.730;2022-11-15T15:21:19;4.68;;;2.55;;
36715;SDS011;22699;51.034;3.730;2022-11-15T15:23:47;4.82;;;3.08;;
36715;SDS011;22699;51.034;3.730;2022-11-15T15:26:15;5.15;;;2.45;;
36715;SDS011;22699;51.034;3.730;2022-11-15T15:28:41;5.28;;;2.90;;
36715;SDS011;22699;51.034;3.730;2022-11-15T15:31:07;6.28;;;2.83;;
36715;SDS011;22699;51.034;3.730;2022-11-15T15:33:33;4.85;;;3.05;;
36715;SDS011;22699;51.034;3.730;2022-11-15T15:35:59;6.15;;;3.22;;
36715;SDS011;22699;51.034;3.730;2022-11-15T15:38:24;6.07;;;2.92;;
36715;SDS011;22699;51.034;3.730;2022-11-15T15:40:50;7.50;;;2.92;;
36715;SDS011;22699;51.034;3.730;2022-11-15T15:43:16;7.93;;;3.55;;
36715;SDS011;22699;51.034;3.730;2022-11-15T15:45:42;4.57;;;2.97;;
36715;SDS011;22699;51.034;3.730;2022-11-15T15:48:13;6.78;;;3.35;;
36715;SDS011;22699;51.034;3.730;2022-11-15T15:50:41;6.72;;;3.30;;
36715;SDS011;22699;51.034;3.730;2022-11-15T15:53:08;6.32;;;3.70;;
36715;SDS011;22699;51.034;3.730;2022-11-15T15:55:38;6.68;;;4.13;;
36715;SDS011;22699;51.034;3.730;2022-11-15T15:58:05;6.28;;;3.65;;
36715;SDS011;22699;51.034;3.730;2022-11-15T16:00:32;5.50;;;3.63;;
36715;SDS011;22699;51.034;3.730;2022-11-15T16:02:58;5.50;;;3.63;;
36715;SDS011;22699;51.034;3.730;2022-11-15T16:05:24;3.60;;;3.08;;
36715;SDS011;22699;51.034;3.730;2022-11-15T16:07:50;7.82;;;2.75;;
36715;SDS011;22699;51.034;3.730;2022-11-15T16:10:18;7.30;;;3.60;;
36715;SDS011;22699;51.034;3.730;2022-11-15T16:12:52;4.32;;;3.00;;
36715;SDS011;22699;51.034;3.730;2022-11-15T16:15:19;3.50;;;3.03;;
36715;SDS011;22699;51.034;3.730;2022-11-15T16:17:49;6.47;;;3.35;;
36715;SDS011;22699;51.034;3.730;2022-11-15T16:20:22;4.40;;;2.90;;
36715;SDS011;22699;51.034;3.730;2022-11-15T16:22:55;4.00;;;2.88;;
36715;SDS011;22699;51.034;3.730;2022-11-15T16:25:21;5.15;;;3.17;;
36715;SDS011;22699;51.034;3.730;2022-11-15T16:27:47;6.70;;;2.88;;
36715;SDS011;22699;51.034;3.730;2022-11-15T16:30:16;4.00;;;2.58;;
36715;SDS011;22699;51.034;3.730;2022-11-15T16:32:46;4.60;;;2.10;;
36715;SDS011;22699;51.034;3.730;2022-11-15T16:35:12;4.88;;;3.22;;
36715;SDS011;22699;51.034;3.730;2022-11-15T16:37:39;4.03;;;2.95;;
36715;SDS011;22699;51.034;3.730;2022-11-15T16:40:27;4.60;;;2.92;;
36715;SDS011;22699;51.034;3.730;2022-11-15T16:42:53;4.97;;;2.97;;
36715;SDS011;22699;51.034;3.730;2022-11-15T16:45:20;4.55;;;2.78;;
36715;SDS011;22699;51.034;3.730;2022-11-15T16:47:46;3.63;;;3.20;;
36715;SDS011;22699;51.034;3.730;2022-11-15T16:50:19;5.28;;;3.40;;
36715;SDS011;22699;51.034;3.730;2022-11-15T16:52:50;5.15;;;3.38;;
36715;SDS011;22699;51.034;3.730;2022-11-15T16:55:17;5.57;;;3.00;;
36715;SDS011;22699;51.034;3.730;2022-11-15T16:57:43;4.05;;;3.38;;
36715;SDS011;22699;51.034;3.730;2022-11-15T17:00:11;6.63;;;3.30;;
36715;SDS011;22699;51.034;3.730;2022-11-15T17:02:40;4.63;;;3.17;;
36715;SDS011;22699;51.034;3.730;2022-11-15T17:05:16;4.57;;;3.10;;
36715;SDS011;22699;51.034;3.730;2022-11-15T17:07:48;4.30;;;3.60;;
36715;SDS011;22699;51.034;3.730;2022-11-15T17:10:22;5.03;;;3.30;;
36715;SDS011;22699;51.034;3.730;2022-11-15T17:12:49;4.50;;;3.90;;